sensor_id;sensor_type;location;lat;lon;timestamp;P1;durP1;ratioP1;P2;durP2;ratioP2
8887;SDS011;4480;52.370;9.748;2023-03-21T00:02:04;29.40;;;20.42;;
8887;SDS011;4480;52.370;9.748;2023-03-21T00:04:32;25.42;;;19.63;;
8887;SDS011;4480;52.370;9.748;2023-03-21T00:06:59;27.33;;;20.10;;
8887;SDS011;4480;52.370;9.748;2023-03-21T00:09:26;31.60;;;19.35;;
8887;SDS011;4480;52.370;9.748;2023-03-21T00:11:53;28.60;;;19.15;;
8887;SDS011;4480;52.370;9.748;2023-03-21T00:14:19;28.20;;;20.25;;
8887;SDS011;4480;52.370;9.748;2023-03-21T00:16:47;30.63;;;21.27;;
8887;SDS011;4480;52.370;9.748;2023-03-21T00:19:15;25.08;;;19.25;;
8887;SDS011;4480;52.370;9.748;2023-03-21T00:21:44;34.38;;;21.02;;
8887;SDS011;4480;52.370;9.748;2023-03-21T00:24:11;32.10;;;21.65;;
8887;SDS011;4480;52.370;9.748;2023-03-21T00:26:38;25.05;;;18.40;;
8887;SDS011;4480;52.370;9.748;2023-03-21T00:29:05;26.70;;;20.20;;
8887;SDS011;4480;52.370;9.748;2023-03-21T00:31:32;33.17;;;20.20;;
8887;SDS011;4480;52.370;9.748;2023-03-21T00:33:59;24.02;;;18.20;;
8887;SDS011;4480;52.370;9.748;2023-03-21T00:36:26;26.95;;;19.50;;
8887;SDS011;4480;52.370;9.748;2023-03-21T00:38:55;25.75;;;19.40;;
8887;SDS011;4480;52.370;9.748;2023-03-21T00:41:21;27.85;;;18.40;;
8887;SDS011;4480;52.370;9.748;2023-03-21T00:43:48;24.98;;;19.42;;
8887;SDS011;4480;52.370;9.748;2023-03-21T00:46:16;28.70;;;19.23;;
8887;SDS011;4480;52.370;9.748;2023-03-21T00:48:42;26.60;;;19.90;;
8887;SDS011;4480;52.370;9.748;2023-03-21T00:51:10;27.60;;;19.90;;
8887;SDS011;4480;52.370;9.748;2023-03-21T00:53:39;29.58;;;18.77;;
8887;SDS011;4480;52.370;9.748;2023-03-21T00:56:07;23.83;;;18.05;;
8887;SDS011;4480;52.370;9.748;2023-03-21T00:58:34;26.60;;;18.65;;
8887;SDS011;4480;52.370;9.748;2023-03-21T01:01:01;28.70;;;18.13;;
8887;SDS011;4480;52.370;9.748;2023-03-21T01:03:30;26.45;;;18.98;;
8887;SDS011;4480;52.370;9.748;2023-03-21T01:06:06;24.10;;;19.23;;
8887;SDS011;4480;52.370;9.748;2023-03-21T01:08:38;25.65;;;19.00;;
8887;SDS011;4480;52.370;9.748;2023-03-21T01:11:08;23.50;;;17.95;;
8887;SDS011;4480;52.370;9.748;2023-03-21T01:13:36;33.88;;;19.95;;
8887;SDS011;4480;52.370;9.748;2023-03-21T01:16:04;25.08;;;18.55;;
8887;SDS011;4480;52.370;9.748;2023-03-21T01:18:33;24.70;;;19.15;;
8887;SDS011;4480;52.370;9.748;2023-03-21T01:21:05;25.55;;;19.20;;
8887;SDS011;4480;52.370;9.748;2023-03-21T01:23:33;24.35;;;17.55;;
8887;SDS011;4480;52.370;9.748;2023-03-21T01:26:00;22.80;;;17.02;;
8887;SDS011;4480;52.370;9.748;2023-03-21T01:28:29;24.90;;;18.13;;
8887;SDS011;4480;52.370;9.748;2023-03-21T01:30:56;22.60;;;17.48;;
8887;SDS011;4480;52.370;9.748;2023-03-21T01:33:26;23.85;;;18.80;;
8887;SDS011;4480;52.370;9.748;2023-03-21T01:35:53;31.85;;;19.30;;
8887;SDS011;4480;52.370;9.748;2023-03-21T01:38:19;25.10;;;18.40;;
8887;SDS011;4480;52.370;9.748;2023-03-21T01:40:47;27.05;;;18.92;;
8887;SDS011;4480;52.370;9.748;2023-03-21T01:43:19;26.58;;;21.77;;
8887;SDS011;4480;52.370;9.748;2023-03-21T01:49:08;28.80;;;18.55;;
8887;SDS011;4480;52.370;9.748;2023-03-21T01:51:40;30.27;;;19.83;;
8887;SDS011;4480;52.370;9.748;2023-03-21T01:54:10;26.00;;;19.75;;
8887;SDS011;4480;52.370;9.748;2023-03-21T01:56:40;28.30;;;20.23;;
8887;SDS011;4480;52.370;9.748;2023-03-21T01:59:11;30.83;;;18.65;;
8887;SDS011;4480;52.370;9.748;2023-03-21T02:01:45;24.90;;;19.70;;
8887;SDS011;4480;52.370;9.748;2023-03-21T02:04:14;27.35;;;20.63;;
8887;SDS011;4480;52.370;9.748;2023-03-21T02:06:48;30.05;;;19.85;;
8887;SDS011;4480;52.370;9.748;2023-03-21T02:09:17;25.85;;;18.90;;
8887;SDS011;4480;52.370;9.748;2023-03-21T02:11:47;27.65;;;18.50;;
8887;SDS011;4480;52.370;9.748;2023-03-21T02:14:17;28.90;;;19.88;;
8887;SDS011;4480;52.370;9.748;2023-03-21T02:16:47;32.92;;;19.67;;
8887;SDS011;4480;52.370;9.748;2023-03-21T02:19:31;33.40;;;19.52;;
8887;SDS011;4480;52.370;9.748;2023-03-21T02:22:35;26.08;;;18.05;;
8887;SDS011;4480;52.370;9.748;2023-03-21T02:25:38;23.85;;;17.02;;
8887;SDS011;4480;52.370;9.748;2023-03-21T02:28:22;26.17;;;18.65;;
8887;SDS011;4480;52.370;9.748;2023-03-21T02:31:00;23.60;;;18.17;;
8887;SDS011;4480;52.370;9.748;2023-03-21T02:33:50;27.60;;;19.23;;
8887;SDS011;4480;52.370;9.748;2023-03-21T02:36:47;25.73;;;18.73;;
8887;SDS011;4480;52.370;9.748;2023-03-21T02:39:23;27.67;;;19.83;;
8887;SDS011;4480;52.370;9.748;2023-03-21T02:41:56;21.40;;;17.25;;
8887;SDS011;4480;52.370;9.748;2023-03-21T02:44:31;31.67;;;19.58;;
8887;SDS011;4480;52.370;9.748;2023-03-21T02:47:06;25.58;;;18.90;;
8887;SDS011;4480;52.370;9.748;2023-03-21T02:49:38;25.25;;;18.33;;
8887;SDS011;4480;52.370;9.748;2023-03-21T02:52:12;25.50;;;19.23;;
8887;SDS011;4480;52.370;9.748;2023-03-21T02:54:43;21.67;;;17.90;;
8887;SDS011;4480;52.370;9.748;2023-03-21T02:57:12;26.92;;;18.02;;
8887;SDS011;4480;52.370;9.748;2023-03-21T02:59:41;21.92;;;17.15;;
8887;SDS011;4480;52.370;9.748;2023-03-21T03:02:09;21.65;;;17.25;;
8887;SDS011;4480;52.370;9.748;2023-03-21T03:04:36;23.42;;;17.58;;
8887;SDS011;4480;52.370;9.748;2023-03-21T03:07:11;27.77;;;19.38;;
8887;SDS011;4480;52.370;9.748;2023-03-21T03:09:49;23.98;;;18.92;;
8887;SDS011;4480;52.370;9.748;2023-03-21T03:12:33;19.02;;;16.45;;
8887;SDS011;4480;52.370;9.748;2023-03-21T03:15:09;22.35;;;16.45;;
8887;SDS011;4480;52.370;9.748;2023-03-21T03:17:48;22.63;;;17.52;;
8887;SDS011;4480;52.370;9.748;2023-03-21T03:20:19;22.27;;;15.90;;
8887;SDS011;4480;52.370;9.748;2023-03-21T03:23:00;21.98;;;16.88;;
8887;SDS011;4480;52.370;9.748;2023-03-21T03:25:35;20.95;;;16.38;;
8887;SDS011;4480;52.370;9.748;2023-03-21T03:28:07;23.77;;;16.25;;
8887;SDS011;4480;52.370;9.748;2023-03-21T03:30:35;21.42;;;15.73;;
8887;SDS011;4480;52.370;9.748;2023-03-21T03:33:03;21.13;;;15.80;;
8887;SDS011;4480;52.370;9.748;2023-03-21T03:35:33;22.15;;;16.95;;
8887;SDS011;4480;52.370;9.748;2023-03-21T03:38:02;23.67;;;15.60;;
8887;SDS011;4480;52.370;9.748;2023-03-21T03:40:33;23.42;;;15.27;;
8887;SDS011;4480;52.370;9.748;2023-03-21T03:43:06;24.98;;;15.98;;
8887;SDS011;4480;52.370;9.748;2023-03-21T03:45:37;20.80;;;14.93;;
8887;SDS011;4480;52.370;9.748;2023-03-21T03:48:12;18.45;;;14.75;;
8887;SDS011;4480;52.370;9.748;2023-03-21T03:50:43;22.70;;;15.43;;
8887;SDS011;4480;52.370;9.748;2023-03-21T03:53:16;21.83;;;15.25;;
8887;SDS011;4480;52.370;9.748;2023-03-21T03:55:47;23.60;;;14.38;;
8887;SDS011;4480;52.370;9.748;2023-03-21T03:58:16;18.90;;;15.70;;
8887;SDS011;4480;52.370;9.748;2023-03-21T04:00:44;21.80;;;15.18;;
8887;SDS011;4480;52.370;9.748;2023-03-21T04:03:11;18.75;;;14.90;;
8887;SDS011;4480;52.370;9.748;2023-03-21T04:05:38;21.63;;;15.30;;
8887;SDS011;4480;52.370;9.748;2023-03-21T04:11:23;23.40;;;14.60;;
8887;SDS011;4480;52.370;9.748;2023-03-21T04:13:50;22.65;;;15.15;;
8887;SDS011;4480;52.370;9.748;2023-03-21T04:16:16;22.58;;;15.75;;
8887;SDS011;4480;52.370;9.748;2023-03-21T04:18:43;21.75;;;15.07;;
8887;SDS011;4480;52.370;9.748;2023-03-21T04:21:11;19.10;;;14.23;;
8887;SDS011;4480;52.370;9.748;2023-03-21T04:23:38;21.63;;;15.02;;
8887;SDS011;4480;52.370;9.748;2023-03-21T04:26:05;19.85;;;15.32;;
8887;SDS011;4480;52.370;9.748;2023-03-21T04:28:34;21.90;;;15.38;;
8887;SDS011;4480;52.370;9.748;2023-03-21T04:31:01;21.55;;;15.10;;
8887;SDS011;4480;52.370;9.748;2023-03-21T04:33:30;18.48;;;14.43;;
8887;SDS011;4480;52.370;9.748;2023-03-21T04:36:02;20.75;;;14.27;;
8887;SDS011;4480;52.370;9.748;2023-03-21T04:38:30;18.95;;;15.15;;
8887;SDS011;4480;52.370;9.748;2023-03-21T04:40:58;20.02;;;14.35;;
8887;SDS011;4480;52.370;9.748;2023-03-21T04:43:26;18.27;;;14.00;;
8887;SDS011;4480;52.370;9.748;2023-03-21T04:45:54;18.58;;;14.88;;
8887;SDS011;4480;52.370;9.748;2023-03-21T04:48:21;19.58;;;14.32;;
8887;SDS011;4480;52.370;9.748;2023-03-21T04:50:49;21.98;;;16.50;;
8887;SDS011;4480;52.370;9.748;2023-03-21T04:53:16;19.05;;;13.65;;
8887;SDS011;4480;52.370;9.748;2023-03-21T04:55:43;17.05;;;14.13;;
8887;SDS011;4480;52.370;9.748;2023-03-21T04:58:10;19.85;;;15.57;;
8887;SDS011;4480;52.370;9.748;2023-03-21T05:00:37;16.85;;;14.15;;
8887;SDS011;4480;52.370;9.748;2023-03-21T05:03:05;20.23;;;14.65;;
8887;SDS011;4480;52.370;9.748;2023-03-21T05:05:33;19.13;;;14.50;;
8887;SDS011;4480;52.370;9.748;2023-03-21T05:08:00;18.98;;;14.63;;
8887;SDS011;4480;52.370;9.748;2023-03-21T05:10:27;21.73;;;14.88;;
8887;SDS011;4480;52.370;9.748;2023-03-21T05:12:54;20.75;;;15.60;;
8887;SDS011;4480;52.370;9.748;2023-03-21T05:15:21;22.77;;;15.43;;
8887;SDS011;4480;52.370;9.748;2023-03-21T05:17:48;20.38;;;14.85;;
8887;SDS011;4480;52.370;9.748;2023-03-21T05:20:16;23.25;;;15.55;;
8887;SDS011;4480;52.370;9.748;2023-03-21T05:22:43;27.05;;;15.63;;
8887;SDS011;4480;52.370;9.748;2023-03-21T05:25:14;17.58;;;13.68;;
8887;SDS011;4480;52.370;9.748;2023-03-21T05:27:42;25.13;;;15.30;;
8887;SDS011;4480;52.370;9.748;2023-03-21T05:30:10;19.08;;;14.32;;
8887;SDS011;4480;52.370;9.748;2023-03-21T05:32:38;18.92;;;14.43;;
8887;SDS011;4480;52.370;9.748;2023-03-21T05:35:06;18.02;;;13.88;;
8887;SDS011;4480;52.370;9.748;2023-03-21T05:37:34;21.65;;;15.65;;
8887;SDS011;4480;52.370;9.748;2023-03-21T05:40:02;18.15;;;13.57;;
8887;SDS011;4480;52.370;9.748;2023-03-21T05:42:31;22.88;;;13.60;;
8887;SDS011;4480;52.370;9.748;2023-03-21T05:44:57;17.13;;;13.60;;
8887;SDS011;4480;52.370;9.748;2023-03-21T05:47:24;19.80;;;15.20;;
8887;SDS011;4480;52.370;9.748;2023-03-21T05:49:51;18.25;;;14.27;;
8887;SDS011;4480;52.370;9.748;2023-03-21T05:52:18;18.55;;;12.98;;
8887;SDS011;4480;52.370;9.748;2023-03-21T05:54:47;17.20;;;13.02;;
8887;SDS011;4480;52.370;9.748;2023-03-21T05:57:14;19.20;;;14.38;;
8887;SDS011;4480;52.370;9.748;2023-03-21T05:59:43;22.58;;;14.27;;
8887;SDS011;4480;52.370;9.748;2023-03-21T06:02:10;16.95;;;14.15;;
8887;SDS011;4480;52.370;9.748;2023-03-21T06:04:36;18.17;;;14.40;;
8887;SDS011;4480;52.370;9.748;2023-03-21T06:07:03;22.25;;;15.20;;
8887;SDS011;4480;52.370;9.748;2023-03-21T06:09:30;21.50;;;15.38;;
8887;SDS011;4480;52.370;9.748;2023-03-21T06:11:59;21.85;;;16.30;;
8887;SDS011;4480;52.370;9.748;2023-03-21T06:14:26;17.90;;;15.10;;
8887;SDS011;4480;52.370;9.748;2023-03-21T06:16:52;20.60;;;15.50;;
8887;SDS011;4480;52.370;9.748;2023-03-21T06:19:20;21.73;;;16.05;;
8887;SDS011;4480;52.370;9.748;2023-03-21T06:21:47;25.55;;;16.42;;
8887;SDS011;4480;52.370;9.748;2023-03-21T06:24:14;19.08;;;16.05;;
8887;SDS011;4480;52.370;9.748;2023-03-21T06:26:41;19.35;;;14.75;;
8887;SDS011;4480;52.370;9.748;2023-03-21T06:29:10;25.85;;;17.08;;
8887;SDS011;4480;52.370;9.748;2023-03-21T06:31:37;23.38;;;16.85;;
8887;SDS011;4480;52.370;9.748;2023-03-21T06:34:04;22.85;;;16.75;;
8887;SDS011;4480;52.370;9.748;2023-03-21T06:36:30;23.35;;;16.10;;
8887;SDS011;4480;52.370;9.748;2023-03-21T06:39:00;21.35;;;16.25;;
8887;SDS011;4480;52.370;9.748;2023-03-21T06:41:27;28.33;;;17.75;;
8887;SDS011;4480;52.370;9.748;2023-03-21T06:43:54;25.40;;;17.52;;
8887;SDS011;4480;52.370;9.748;2023-03-21T06:46:23;21.40;;;16.15;;
8887;SDS011;4480;52.370;9.748;2023-03-21T06:48:49;22.67;;;16.02;;
8887;SDS011;4480;52.370;9.748;2023-03-21T06:51:16;22.83;;;16.20;;
8887;SDS011;4480;52.370;9.748;2023-03-21T06:53:43;23.70;;;16.90;;
8887;SDS011;4480;52.370;9.748;2023-03-21T06:56:11;27.40;;;17.05;;
8887;SDS011;4480;52.370;9.748;2023-03-21T06:58:38;22.08;;;18.70;;
8887;SDS011;4480;52.370;9.748;2023-03-21T07:01:06;25.40;;;17.60;;
8887;SDS011;4480;52.370;9.748;2023-03-21T07:03:34;24.88;;;17.42;;
8887;SDS011;4480;52.370;9.748;2023-03-21T07:06:04;23.88;;;16.08;;
8887;SDS011;4480;52.370;9.748;2023-03-21T07:08:35;28.75;;;17.48;;
8887;SDS011;4480;52.370;9.748;2023-03-21T07:11:03;22.55;;;17.05;;
8887;SDS011;4480;52.370;9.748;2023-03-21T07:13:30;26.67;;;17.40;;
8887;SDS011;4480;52.370;9.748;2023-03-21T07:15:58;25.90;;;15.88;;
8887;SDS011;4480;52.370;9.748;2023-03-21T07:18:25;29.33;;;17.33;;
8887;SDS011;4480;52.370;9.748;2023-03-21T07:20:53;23.90;;;16.80;;
8887;SDS011;4480;52.370;9.748;2023-03-21T07:23:21;26.13;;;17.27;;
8887;SDS011;4480;52.370;9.748;2023-03-21T07:25:49;23.90;;;16.13;;
8887;SDS011;4480;52.370;9.748;2023-03-21T07:28:17;29.27;;;17.03;;
8887;SDS011;4480;52.370;9.748;2023-03-21T07:30:50;22.67;;;15.40;;
8887;SDS011;4480;52.370;9.748;2023-03-21T07:33:19;26.70;;;15.47;;
8887;SDS011;4480;52.370;9.748;2023-03-21T07:35:47;18.77;;;14.17;;
8887;SDS011;4480;52.370;9.748;2023-03-21T07:38:15;23.70;;;15.30;;
8887;SDS011;4480;52.370;9.748;2023-03-21T07:40:43;22.40;;;14.20;;
8887;SDS011;4480;52.370;9.748;2023-03-21T07:43:12;19.83;;;13.67;;
8887;SDS011;4480;52.370;9.748;2023-03-21T07:45:40;22.03;;;14.87;;
8887;SDS011;4480;52.370;9.748;2023-03-21T07:48:07;24.97;;;14.60;;
8887;SDS011;4480;52.370;9.748;2023-03-21T07:50:37;23.33;;;13.27;;
8887;SDS011;4480;52.370;9.748;2023-03-21T07:53:04;19.03;;;13.57;;
8887;SDS011;4480;52.370;9.748;2023-03-21T07:55:32;20.07;;;13.20;;
8887;SDS011;4480;52.370;9.748;2023-03-21T07:57:59;20.83;;;14.10;;
8887;SDS011;4480;52.370;9.748;2023-03-21T08:00:26;20.43;;;14.00;;
8887;SDS011;4480;52.370;9.748;2023-03-21T08:02:54;14.30;;;12.30;;
8887;SDS011;4480;52.370;9.748;2023-03-21T08:05:22;23.73;;;12.90;;
8887;SDS011;4480;52.370;9.748;2023-03-21T08:07:50;20.10;;;13.80;;
8887;SDS011;4480;52.370;9.748;2023-03-21T08:10:17;23.90;;;14.27;;
8887;SDS011;4480;52.370;9.748;2023-03-21T08:12:46;16.40;;;12.40;;
8887;SDS011;4480;52.370;9.748;2023-03-21T08:15:14;22.73;;;13.83;;
8887;SDS011;4480;52.370;9.748;2023-03-21T08:17:41;19.20;;;13.20;;
8887;SDS011;4480;52.370;9.748;2023-03-21T08:20:10;16.00;;;11.73;;
8887;SDS011;4480;52.370;9.748;2023-03-21T08:22:39;28.27;;;14.20;;
8887;SDS011;4480;52.370;9.748;2023-03-21T08:25:06;18.10;;;12.13;;
8887;SDS011;4480;52.370;9.748;2023-03-21T08:27:38;19.43;;;13.10;;
8887;SDS011;4480;52.370;9.748;2023-03-21T08:30:07;17.63;;;12.57;;
8887;SDS011;4480;52.370;9.748;2023-03-21T08:32:36;24.13;;;12.57;;
8887;SDS011;4480;52.370;9.748;2023-03-21T08:35:03;17.93;;;11.30;;
8887;SDS011;4480;52.370;9.748;2023-03-21T08:37:32;17.63;;;12.33;;
8887;SDS011;4480;52.370;9.748;2023-03-21T08:40:00;22.60;;;12.50;;
8887;SDS011;4480;52.370;9.748;2023-03-21T08:42:28;20.30;;;12.73;;
8887;SDS011;4480;52.370;9.748;2023-03-21T08:45:16;16.57;;;12.30;;
8887;SDS011;4480;52.370;9.748;2023-03-21T08:47:43;19.97;;;13.57;;
8887;SDS011;4480;52.370;9.748;2023-03-21T08:50:11;17.63;;;13.33;;
8887;SDS011;4480;52.370;9.748;2023-03-21T08:52:39;21.97;;;12.90;;
8887;SDS011;4480;52.370;9.748;2023-03-21T08:55:06;24.10;;;13.93;;
8887;SDS011;4480;52.370;9.748;2023-03-21T08:57:34;15.80;;;12.23;;
8887;SDS011;4480;52.370;9.748;2023-03-21T09:00:02;21.87;;;12.23;;
8887;SDS011;4480;52.370;9.748;2023-03-21T09:02:37;23.07;;;13.67;;
8887;SDS011;4480;52.370;9.748;2023-03-21T09:05:04;19.17;;;12.50;;
8887;SDS011;4480;52.370;9.748;2023-03-21T09:07:32;18.03;;;13.07;;
8887;SDS011;4480;52.370;9.748;2023-03-21T09:10:00;17.70;;;11.70;;
8887;SDS011;4480;52.370;9.748;2023-03-21T09:12:27;14.60;;;11.37;;
8887;SDS011;4480;52.370;9.748;2023-03-21T09:14:54;16.47;;;11.77;;
8887;SDS011;4480;52.370;9.748;2023-03-21T09:17:21;14.90;;;11.97;;
8887;SDS011;4480;52.370;9.748;2023-03-21T09:19:49;14.97;;;11.60;;
8887;SDS011;4480;52.370;9.748;2023-03-21T09:22:17;15.57;;;11.53;;
8887;SDS011;4480;52.370;9.748;2023-03-21T09:24:47;18.40;;;11.40;;
8887;SDS011;4480;52.370;9.748;2023-03-21T09:27:14;19.10;;;12.20;;
8887;SDS011;4480;52.370;9.748;2023-03-21T09:29:42;17.60;;;11.47;;
8887;SDS011;4480;52.370;9.748;2023-03-21T09:32:10;19.10;;;11.50;;
8887;SDS011;4480;52.370;9.748;2023-03-21T09:34:37;15.00;;;11.53;;
8887;SDS011;4480;52.370;9.748;2023-03-21T09:37:08;15.13;;;11.30;;
8887;SDS011;4480;52.370;9.748;2023-03-21T09:39:37;16.60;;;12.13;;
8887;SDS011;4480;52.370;9.748;2023-03-21T09:42:16;16.63;;;11.33;;
8887;SDS011;4480;52.370;9.748;2023-03-21T09:44:57;20.67;;;10.30;;
8887;SDS011;4480;52.370;9.748;2023-03-21T09:47:29;19.10;;;12.60;;
8887;SDS011;4480;52.370;9.748;2023-03-21T09:50:00;18.13;;;11.30;;
8887;SDS011;4480;52.370;9.748;2023-03-21T09:52:33;16.33;;;11.00;;
8887;SDS011;4480;52.370;9.748;2023-03-21T09:55:08;14.77;;;10.73;;
8887;SDS011;4480;52.370;9.748;2023-03-21T09:57:44;14.60;;;9.60;;
8887;SDS011;4480;52.370;9.748;2023-03-21T10:00:15;16.17;;;9.57;;
8887;SDS011;4480;52.370;9.748;2023-03-21T10:02:50;16.93;;;11.00;;
8887;SDS011;4480;52.370;9.748;2023-03-21T10:05:24;14.47;;;9.90;;
8887;SDS011;4480;52.370;9.748;2023-03-21T10:07:55;17.30;;;10.40;;
8887;SDS011;4480;52.370;9.748;2023-03-21T10:10:26;16.40;;;10.57;;
8887;SDS011;4480;52.370;9.748;2023-03-21T10:12:55;13.57;;;10.33;;
8887;SDS011;4480;52.370;9.748;2023-03-21T10:15:23;13.93;;;9.70;;
8887;SDS011;4480;52.370;9.748;2023-03-21T10:17:53;14.23;;;10.17;;
8887;SDS011;4480;52.370;9.748;2023-03-21T10:20:25;23.10;;;11.80;;
8887;SDS011;4480;52.370;9.748;2023-03-21T10:22:56;19.83;;;11.80;;
8887;SDS011;4480;52.370;9.748;2023-03-21T10:25:25;16.73;;;11.07;;
8887;SDS011;4480;52.370;9.748;2023-03-21T10:27:56;16.90;;;10.73;;
8887;SDS011;4480;52.370;9.748;2023-03-21T10:30:27;15.90;;;11.43;;
8887;SDS011;4480;52.370;9.748;2023-03-21T10:33:01;19.63;;;11.67;;
8887;SDS011;4480;52.370;9.748;2023-03-21T10:35:29;21.40;;;11.97;;
8887;SDS011;4480;52.370;9.748;2023-03-21T10:38:02;17.37;;;12.07;;
8887;SDS011;4480;52.370;9.748;2023-03-21T10:40:29;16.00;;;10.60;;
8887;SDS011;4480;52.370;9.748;2023-03-21T10:42:58;17.80;;;11.67;;
8887;SDS011;4480;52.370;9.748;2023-03-21T10:45:43;16.30;;;10.93;;
8887;SDS011;4480;52.370;9.748;2023-03-21T10:48:11;17.40;;;10.63;;
8887;SDS011;4480;52.370;9.748;2023-03-21T10:50:38;15.10;;;10.60;;
8887;SDS011;4480;52.370;9.748;2023-03-21T10:53:14;16.73;;;10.93;;
8887;SDS011;4480;52.370;9.748;2023-03-21T10:55:45;19.97;;;9.87;;
8887;SDS011;4480;52.370;9.748;2023-03-21T10:58:14;15.90;;;10.70;;
8887;SDS011;4480;52.370;9.748;2023-03-21T11:00:51;17.47;;;10.60;;
8887;SDS011;4480;52.370;9.748;2023-03-21T11:03:22;16.53;;;9.97;;
8887;SDS011;4480;52.370;9.748;2023-03-21T11:05:54;15.00;;;10.03;;
8887;SDS011;4480;52.370;9.748;2023-03-21T11:08:25;14.93;;;10.50;;
8887;SDS011;4480;52.370;9.748;2023-03-21T11:10:53;15.33;;;9.87;;
8887;SDS011;4480;52.370;9.748;2023-03-21T11:13:26;22.10;;;11.93;;
8887;SDS011;4480;52.370;9.748;2023-03-21T11:16:03;14.43;;;9.47;;
8887;SDS011;4480;52.370;9.748;2023-03-21T11:18:32;19.63;;;10.10;;
8887;SDS011;4480;52.370;9.748;2023-03-21T11:21:05;17.23;;;9.73;;
8887;SDS011;4480;52.370;9.748;2023-03-21T11:23:37;12.90;;;8.73;;
8887;SDS011;4480;52.370;9.748;2023-03-21T11:26:08;12.53;;;9.83;;
8887;SDS011;4480;52.370;9.748;2023-03-21T11:28:37;16.73;;;10.03;;
8887;SDS011;4480;52.370;9.748;2023-03-21T11:31:05;14.07;;;8.70;;
8887;SDS011;4480;52.370;9.748;2023-03-21T11:33:34;15.93;;;9.60;;
8887;SDS011;4480;52.370;9.748;2023-03-21T11:36:05;18.30;;;10.80;;
8887;SDS011;4480;52.370;9.748;2023-03-21T11:38:51;17.10;;;9.53;;
8887;SDS011;4480;52.370;9.748;2023-03-21T11:41:22;14.70;;;10.10;;
8887;SDS011;4480;52.370;9.748;2023-03-21T11:43:51;14.33;;;9.40;;
8887;SDS011;4480;52.370;9.748;2023-03-21T11:46:21;12.23;;;10.27;;
8887;SDS011;4480;52.370;9.748;2023-03-21T11:48:49;18.70;;;10.13;;
8887;SDS011;4480;52.370;9.748;2023-03-21T11:51:20;16.70;;;11.00;;
8887;SDS011;4480;52.370;9.748;2023-03-21T11:54:03;18.13;;;10.00;;
8887;SDS011;4480;52.370;9.748;2023-03-21T11:56:36;13.90;;;9.30;;
8887;SDS011;4480;52.370;9.748;2023-03-21T11:59:23;14.77;;;10.10;;
8887;SDS011;4480;52.370;9.748;2023-03-21T12:02:04;18.00;;;10.37;;
8887;SDS011;4480;52.370;9.748;2023-03-21T12:04:47;14.33;;;10.13;;
8887;SDS011;4480;52.370;9.748;2023-03-21T12:07:23;26.10;;;11.20;;
8887;SDS011;4480;52.370;9.748;2023-03-21T12:10:09;17.23;;;11.10;;
8887;SDS011;4480;52.370;9.748;2023-03-21T12:12:51;17.17;;;10.47;;
8887;SDS011;4480;52.370;9.748;2023-03-21T12:15:26;15.97;;;11.30;;
8887;SDS011;4480;52.370;9.748;2023-03-21T12:18:02;18.27;;;11.60;;
8887;SDS011;4480;52.370;9.748;2023-03-21T12:20:38;18.70;;;11.30;;
8887;SDS011;4480;52.370;9.748;2023-03-21T12:23:17;18.83;;;11.10;;
8887;SDS011;4480;52.370;9.748;2023-03-21T12:25:58;16.20;;;10.87;;
8887;SDS011;4480;52.370;9.748;2023-03-21T12:28:32;16.73;;;10.47;;
8887;SDS011;4480;52.370;9.748;2023-03-21T12:31:07;16.43;;;11.50;;
8887;SDS011;4480;52.370;9.748;2023-03-21T12:33:46;16.37;;;11.60;;
8887;SDS011;4480;52.370;9.748;2023-03-21T12:36:27;15.87;;;11.33;;
8887;SDS011;4480;52.370;9.748;2023-03-21T12:39:13;14.97;;;9.83;;
8887;SDS011;4480;52.370;9.748;2023-03-21T12:41:51;16.10;;;12.27;;
8887;SDS011;4480;52.370;9.748;2023-03-21T12:44:32;19.60;;;10.93;;
8887;SDS011;4480;52.370;9.748;2023-03-21T12:47:01;16.27;;;11.97;;
8887;SDS011;4480;52.370;9.748;2023-03-21T12:49:33;19.20;;;12.50;;
8887;SDS011;4480;52.370;9.748;2023-03-21T12:52:05;19.87;;;12.20;;
8887;SDS011;4480;52.370;9.748;2023-03-21T12:54:35;18.37;;;11.70;;
8887;SDS011;4480;52.370;9.748;2023-03-21T12:57:07;14.70;;;11.63;;
8887;SDS011;4480;52.370;9.748;2023-03-21T12:59:40;19.17;;;12.73;;
8887;SDS011;4480;52.370;9.748;2023-03-21T13:02:17;17.30;;;12.50;;
8887;SDS011;4480;52.370;9.748;2023-03-21T13:04:50;15.23;;;11.60;;
8887;SDS011;4480;52.370;9.748;2023-03-21T13:07:24;18.98;;;11.75;;
8887;SDS011;4480;52.370;9.748;2023-03-21T13:09:54;15.60;;;12.33;;
8887;SDS011;4480;52.370;9.748;2023-03-21T13:12:31;18.03;;;12.70;;
8887;SDS011;4480;52.370;9.748;2023-03-21T13:18:01;13.50;;;10.73;;
8887;SDS011;4480;52.370;9.748;2023-03-21T13:20:39;17.43;;;11.90;;
8887;SDS011;4480;52.370;9.748;2023-03-21T13:23:11;17.37;;;11.27;;
8887;SDS011;4480;52.370;9.748;2023-03-21T13:25:40;16.40;;;11.50;;
8887;SDS011;4480;52.370;9.748;2023-03-21T13:28:15;19.33;;;12.40;;
8887;SDS011;4480;52.370;9.748;2023-03-21T13:30:45;25.60;;;11.80;;
8887;SDS011;4480;52.370;9.748;2023-03-21T13:33:14;17.93;;;12.00;;
8887;SDS011;4480;52.370;9.748;2023-03-21T13:35:45;16.00;;;11.17;;
8887;SDS011;4480;52.370;9.748;2023-03-21T13:38:25;16.27;;;12.27;;
8887;SDS011;4480;52.370;9.748;2023-03-21T13:40:56;17.90;;;10.00;;
8887;SDS011;4480;52.370;9.748;2023-03-21T13:43:31;15.90;;;9.90;;
8887;SDS011;4480;52.370;9.748;2023-03-21T13:46:07;18.40;;;11.13;;
8887;SDS011;4480;52.370;9.748;2023-03-21T13:48:54;18.23;;;10.47;;
8887;SDS011;4480;52.370;9.748;2023-03-21T13:51:37;13.37;;;9.73;;
8887;SDS011;4480;52.370;9.748;2023-03-21T13:54:18;19.43;;;10.47;;
8887;SDS011;4480;52.370;9.748;2023-03-21T13:56:55;17.93;;;9.60;;
8887;SDS011;4480;52.370;9.748;2023-03-21T14:04:59;16.43;;;10.33;;
8887;SDS011;4480;52.370;9.748;2023-03-21T14:07:28;17.63;;;10.33;;
8887;SDS011;4480;52.370;9.748;2023-03-21T14:09:58;19.03;;;9.90;;
8887;SDS011;4480;52.370;9.748;2023-03-21T14:12:27;22.67;;;12.50;;
8887;SDS011;4480;52.370;9.748;2023-03-21T14:15:02;16.00;;;10.27;;
8887;SDS011;4480;52.370;9.748;2023-03-21T14:17:31;16.07;;;10.33;;
8887;SDS011;4480;52.370;9.748;2023-03-21T14:20:00;11.07;;;9.13;;
8887;SDS011;4480;52.370;9.748;2023-03-21T14:22:35;14.83;;;10.47;;
8887;SDS011;4480;52.370;9.748;2023-03-21T14:25:02;14.47;;;9.43;;
8887;SDS011;4480;52.370;9.748;2023-03-21T14:27:32;13.10;;;9.40;;
8887;SDS011;4480;52.370;9.748;2023-03-21T14:30:03;15.10;;;9.27;;
8887;SDS011;4480;52.370;9.748;2023-03-21T14:32:32;13.00;;;10.87;;
8887;SDS011;4480;52.370;9.748;2023-03-21T14:35:00;15.40;;;9.87;;
8887;SDS011;4480;52.370;9.748;2023-03-21T14:37:29;13.40;;;9.70;;
8887;SDS011;4480;52.370;9.748;2023-03-21T14:39:58;12.40;;;9.50;;
8887;SDS011;4480;52.370;9.748;2023-03-21T14:42:26;18.03;;;10.00;;
8887;SDS011;4480;52.370;9.748;2023-03-21T14:44:53;15.00;;;10.23;;
8887;SDS011;4480;52.370;9.748;2023-03-21T14:47:26;14.33;;;8.70;;
8887;SDS011;4480;52.370;9.748;2023-03-21T14:49:56;10.83;;;8.43;;
8887;SDS011;4480;52.370;9.748;2023-03-21T14:52:26;14.23;;;9.20;;
8887;SDS011;4480;52.370;9.748;2023-03-21T14:54:56;15.47;;;9.20;;
8887;SDS011;4480;52.370;9.748;2023-03-21T14:57:24;12.23;;;8.63;;
8887;SDS011;4480;52.370;9.748;2023-03-21T14:59:53;9.23;;;7.90;;
8887;SDS011;4480;52.370;9.748;2023-03-21T15:02:26;17.20;;;9.57;;
8887;SDS011;4480;52.370;9.748;2023-03-21T15:04:57;14.67;;;9.40;;
8887;SDS011;4480;52.370;9.748;2023-03-21T15:07:32;13.03;;;9.00;;
8887;SDS011;4480;52.370;9.748;2023-03-21T15:10:01;15.80;;;9.40;;
8887;SDS011;4480;52.370;9.748;2023-03-21T15:12:29;14.57;;;9.70;;
8887;SDS011;4480;52.370;9.748;2023-03-21T15:14:56;13.73;;;9.53;;
8887;SDS011;4480;52.370;9.748;2023-03-21T15:17:25;24.87;;;11.43;;
8887;SDS011;4480;52.370;9.748;2023-03-21T15:19:53;15.83;;;9.50;;
8887;SDS011;4480;52.370;9.748;2023-03-21T15:22:22;12.77;;;9.03;;
8887;SDS011;4480;52.370;9.748;2023-03-21T15:24:56;17.67;;;9.43;;
8887;SDS011;4480;52.370;9.748;2023-03-21T15:27:24;14.47;;;10.30;;